Terminal Aerodrome Forecast
Issued by NWS Jacksonville, FL

Home | Current Version | Previous Version | Text Only | Print | Product List | Glossary On
Versions: 1 2 3 4 5 6 7 8 9 10 11 12 13 14 15
620
FTUS42 KJAX 241734
TAFSSI
TAF
KSSI 241734Z 2418/2518 17011G18KT P6SM FEW040 SCT250
      TEMPO 2418/2420 22008KT
     FM250400 22008KT P6SM SCT060 BKN200
     FM251500 23007KT P6SM VCSH FEW020 SCT035=

USA.gov is the U.S. government's official web portal to all federal, state and local government web resources and services.